Time;durP1;ratioP1;P1;durP2;ratioP2;P2;SDS_P1;SDS_P2;PMS_P1;PMS_P2;Temp;Humidity;BMP_temperature;BMP_pressure;BME280_temperature;BME280_humidity;BME280_pressure;Samples;Min_cycle;Max_cycle;Signal;HPM_P1;HPM_P2
2022/06/24 00:00:17;;;;;;;9.30;5.10;;;;;;;17.34;59.21;98521.84;1616978;88;25533;-59
2022/06/24 00:02:49;;;;;;;7.42;4.70;;;;;;;17.30;59.97;98512.66;1617032;88;25686;-59
2022/06/24 00:05:16;;;;;;;8.25;5.12;;;;;;;17.22;59.75;98513.09;1617039;88;25498;-59
2022/06/24 00:07:50;;;;;;;8.50;4.65;;;;;;;17.19;60.25;98509.66;1617153;88;27405;-60
2022/06/24 00:10:19;;;;;;;7.10;4.62;;;;;;;17.12;59.88;98503.94;1616737;88;25672;-60
2022/06/24 00:12:47;;;;;;;8.23;4.85;;;;;;;17.07;60.10;98509.18;1617148;88;25635;-60
2022/06/24 00:15:14;;;;;;;7.10;4.80;;;;;;;17.02;60.48;98513.60;1617009;88;25798;-60
2022/06/24 00:17:42;;;;;;;6.08;4.70;;;;;;;17.00;60.51;98511.77;1617192;88;25837;-59
2022/06/24 00:20:13;;;;;;;7.00;4.95;;;;;;;17.02;60.22;98522.72;1617175;88;27458;-60
2022/06/24 00:22:47;;;;;;;7.72;5.55;;;;;;;17.00;60.46;98520.88;1616655;88;25824;-60
2022/06/24 00:25:23;;;;;;;9.38;5.17;;;;;;;16.98;60.89;98525.18;1617082;88;25700;-59
2022/06/24 00:28:10;;;;;;;8.58;5.90;;;;;;;16.97;60.66;98526.33;1617033;88;25691;-59
2022/06/24 00:30:52;;;;;;;6.83;5.58;;;;;;;16.97;61.00;98529.09;1616922;88;25481;-60
2022/06/24 00:34:25;;;;;;;8.20;5.72;;;;;;;16.84;61.55;98526.43;1617051;88;28484;-60
2022/06/24 00:36:51;;;;;;;6.97;4.97;;;;;;;16.76;62.01;98523.29;1617009;88;25646;-59
2022/06/24 00:39:17;;;;;;;6.10;5.20;;;;;;;16.67;62.34;98518.73;1617059;88;25740;-60
2022/06/24 00:41:50;;;;;;;6.67;5.35;;;;;;;16.67;61.98;98516.56;1617304;88;26555;-60
2022/06/24 00:44:20;;;;;;;5.53;4.67;;;;;;;16.65;61.75;98512.77;1616681;88;25611;-60
2022/06/24 00:46:51;;;;;;;8.37;5.60;;;;;;;16.63;61.97;98516.47;1617423;88;27762;-60
2022/06/24 00:49:23;;;;;;;7.35;4.92;;;;;;;16.56;62.08;98513.53;1617043;88;25825;-60
2022/06/24 00:51:49;;;;;;;7.10;5.35;;;;;;;16.54;62.31;98515.28;1617160;88;25462;-60
2022/06/24 00:54:15;;;;;;;7.15;4.87;;;;;;;16.55;62.41;98513.30;1616901;87;25753;-60
2022/06/24 00:56:42;;;;;;;7.35;4.95;;;;;;;16.53;63.21;98515.63;1617108;88;25676;-60
2022/06/24 00:59:08;;;;;;;7.20;5.08;;;;;;;16.50;62.76;98508.86;1617295;88;27331;-59
2022/06/24 01:01:41;;;;;;;7.42;4.70;;;;;;;16.48;62.77;98506.21;1616963;88;25482;-60
2022/06/24 01:04:10;;;;;;;7.80;4.85;;;;;;;16.47;62.95;98508.20;1617053;88;25463;-60
2022/06/24 01:06:44;;;;;;;6.92;5.25;;;;;;;16.40;63.03;98499.70;1616952;88;25697;-60
2022/06/24 01:09:11;;;;;;;8.35;5.45;;;;;;;16.37;63.45;98497.64;1617009;88;25728;-60
2022/06/24 01:11:41;;;;;;;7.25;5.20;;;;;;;16.32;64.02;98487.66;1616859;88;27414;-59
2022/06/24 01:14:09;;;;;;;7.55;5.20;;;;;;;16.28;63.90;98492.30;1617028;88;25470;-59
2022/06/24 01:16:36;;;;;;;6.60;4.90;;;;;;;16.28;64.30;98492.30;1617154;88;25483;-59
2022/06/24 01:19:09;;;;;;;8.30;5.17;;;;;;;16.20;64.20;98487.16;1617095;88;25774;-60
2022/06/24 01:21:48;;;;;;;7.22;5.40;;;;;;;16.18;64.49;98489.50;1617184;88;25660;-59
2022/06/24 01:24:20;;;;;;;7.87;5.65;;;;;;;16.12;64.40;98485.39;1617089;88;27460;-60
2022/06/24 01:26:54;;;;;;;6.12;5.22;;;;;;;16.11;64.00;98483.20;1617012;88;25637;-60
2022/06/24 01:29:22;;;;;;;9.53;5.45;;;;;;;16.11;64.58;98487.91;1617100;88;25652;-59
2022/06/24 01:31:50;;;;;;;9.68;5.25;;;;;;;16.12;64.69;98485.39;1616979;88;26488;-59
2022/06/24 01:34:18;;;;;;;8.63;5.47;;;;;;;16.11;64.83;98481.00;1617071;88;25695;-59
2022/06/24 01:36:44;;;;;;;7.20;5.62;;;;;;;16.11;65.01;98473.52;1617109;88;27474;-59
2022/06/24 01:39:11;;;;;;;7.25;5.47;;;;;;;16.06;65.22;98475.16;1616972;88;25953;-59
2022/06/24 01:41:38;;;;;;;8.13;6.08;;;;;;;16.01;65.50;98467.14;1617111;88;25606;-60
2022/06/24 01:44:04;;;;;;;8.18;5.60;;;;;;;15.96;66.23;98461.84;1616966;88;25650;-59
2022/06/24 01:46:30;;;;;;;9.08;5.85;;;;;;;15.89;66.37;98463.25;1617123;88;25627;-59
2022/06/24 01:48:56;;;;;;;6.45;5.35;;;;;;;15.87;66.09;98473.06;1617091;88;27323;-59
2022/06/24 01:51:24;;;;;;;7.95;5.45;;;;;;;15.85;66.43;98465.12;1617043;88;25669;-59
2022/06/24 01:53:51;;;;;;;8.35;5.70;;;;;;;15.88;66.28;98467.19;1629798;87;25667;-59
2022/06/24 01:56:18;;;;;;;9.05;5.92;;;;;;;15.81;66.74;98467.78;1689379;84;26506;-59
2022/06/24 01:58:45;;;;;;;9.00;5.40;;;;;;;15.75;66.71;98461.51;1689431;85;25416;-59
2022/06/24 02:01:12;;;;;;;9.43;5.55;;;;;;;15.74;67.07;98466.78;1689290;85;27593;-59
2022/06/24 02:03:39;;;;;;;10.18;5.78;;;;;;;15.76;66.99;98469.44;1689296;84;25443;-59
2022/06/24 02:06:09;;;;;;;7.67;5.90;;;;;;;15.77;67.17;98461.94;1689490;84;25620;-59
2022/06/24 02:08:36;;;;;;;9.48;6.10;;;;;;;15.71;67.72;98459.23;1689678;84;25428;-59
2022/06/24 02:13:48;;;;;;;8.28;6.20;;;;;;;15.65;67.64;98449.00;1689286;85;27483;-59
2022/06/24 02:16:18;;;;;;;9.90;5.85;;;;;;;15.62;67.88;98452.47;1689449;84;25673;-60
2022/06/24 02:18:46;;;;;;;9.60;6.83;;;;;;;15.60;67.44;98460.32;1689350;85;25587;-60
2022/06/24 02:21:13;;;;;;;8.15;5.83;;;;;;;15.58;67.48;98459.30;1689567;85;25738;-60
2022/06/24 02:23:41;;;;;;;9.85;6.08;;;;;;;15.57;67.59;98452.14;1689552;84;25751;-60
2022/06/24 02:26:08;;;;;;;12.47;6.10;;;;;;;15.57;67.64;98461.81;1689511;84;27343;-60
2022/06/24 02:28:34;;;;;;;9.23;6.03;;;;;;;15.58;67.63;98461.23;1689678;84;25701;-60
2022/06/24 02:31:01;;;;;;;10.35;6.40;;;;;;;15.57;68.09;98455.50;1689473;85;25625;-60
2022/06/24 02:33:29;;;;;;;8.78;5.97;;;;;;;15.51;67.96;98461.83;1689478;84;25593;-60
2022/06/24 02:35:56;;;;;;;11.78;6.17;;;;;;;15.49;68.03;98456.66;1689605;84;25700;-59
2022/06/24 02:38:22;;;;;;;12.20;6.37;;;;;;;15.46;68.23;98456.02;1689759;84;27461;-59
2022/06/24 02:40:48;;;;;;;9.58;6.20;;;;;;;15.47;68.43;98456.80;1689790;84;25584;-59
2022/06/24 02:43:24;;;;;;;9.68;5.97;;;;;;;15.46;68.03;98457.96;1689504;84;25677;-61
2022/06/24 02:46:06;;;;;;;9.35;6.20;;;;;;;15.43;68.39;98461.64;1689584;84;25677;-59
2022/06/24 02:48:34;;;;;;;8.35;6.08;;;;;;;15.40;68.54;98460.96;1689722;84;25690;-59
2022/06/24 02:51:05;;;;;;;12.40;6.40;;;;;;;15.40;68.54;98460.96;1689759;84;27321;-59
2022/06/24 02:53:32;;;;;;;;;;;;;;;15.42;68.02;98460.05;1690463;84;25732;-59
2022/06/24 02:56:06;;;;;;;11.18;6.40;;;;;;;15.44;68.13;98459.69;1689789;84;25444;-59
2022/06/24 02:58:33;;;;;;;9.03;6.03;;;;;;;15.44;68.40;98467.98;1688341;84;25693;-60
2022/06/24 03:01:01;;;;;;;8.93;6.10;;;;;;;15.33;68.89;98461.33;1689936;84;25451;-59
2022/06/24 03:03:28;;;;;;;8.40;6.42;;;;;;;15.31;69.07;98461.69;1689685;84;27383;-60
2022/06/24 03:05:55;;;;;;;8.40;6.42;;;;;;;15.30;69.63;98466.98;1689748;84;25697;-59
2022/06/24 03:08:23;;;;;;;9.90;6.20;;;;;;;15.28;68.81;98464.58;1689705;84;25680;-59
2022/06/24 03:10:51;;;;;;;9.60;6.87;;;;;;;15.31;69.02;98468.59;1689609;84;26669;-59
2022/06/24 03:13:17;;;;;;;11.20;6.42;;;;;;;15.32;69.20;98467.45;1690026;84;25444;-59
2022/06/24 03:15:45;;;;;;;9.13;6.78;;;;;;;15.37;69.20;98466.40;1689309;84;27545;-59
2022/06/24 03:18:14;;;;;;;10.35;5.75;;;;;;;15.36;69.34;98472.48;1689407;84;25823;-60
2022/06/24 03:20:41;;;;;;;8.85;6.10;;;;;;;15.39;69.06;98465.45;1689503;84;25787;-59
2022/06/24 03:23:07;;;;;;;12.43;6.53;;;;;;;15.52;68.62;98469.77;1689758;84;25740;-60
2022/06/24 03:25:33;;;;;;;9.75;6.42;;;;;;;15.52;68.62;98469.77;1689740;84;25672;-59
2022/06/24 03:28:04;;;;;;;8.33;6.22;;;;;;;15.57;68.75;98467.33;1689874;84;27482;-59
2022/06/24 03:30:34;;;;;;;11.43;6.60;;;;;;;15.63;68.42;98467.30;1689311;84;25543;-60
2022/06/24 03:33:02;;;;;;;8.33;5.70;;;;;;;15.67;68.35;98464.09;1689636;84;25670;-60
2022/06/24 03:35:32;;;;;;;9.50;6.83;;;;;;;15.72;68.30;98463.02;1689410;84;27845;-60
2022/06/24 03:38:02;;;;;;;12.20;6.55;;;;;;;15.77;68.25;98461.37;1689918;84;25613;-60
2022/06/24 03:40:29;;;;;;;8.68;6.40;;;;;;;15.85;67.90;98464.31;1689932;84;27375;-60
2022/06/24 03:42:55;;;;;;;11.80;6.17;;;;;;;15.98;67.83;98472.00;1689314;84;25745;-59
2022/06/24 03:45:22;;;;;;;11.73;6.87;;;;;;;16.08;67.47;98465.94;1689401;84;25713;-59
2022/06/24 03:47:48;;;;;;;10.95;6.00;;;;;;;16.16;67.25;98471.08;1689627;84;26524;-60
2022/06/24 03:50:16;;;;;;;8.33;5.83;;;;;;;16.22;67.07;98469.66;1689648;84;25499;-60
2022/06/24 03:52:42;;;;;;;9.55;5.75;;;;;;;16.28;66.89;98465.46;1689349;84;27413;-60
2022/06/24 03:55:09;;;;;;;10.65;6.12;;;;;;;16.33;66.89;98469.11;1683970;84;25634;-60
2022/06/24 03:57:37;;;;;;;8.18;5.30;;;;;;;16.40;66.59;98466.52;1672848;85;25736;-59
2022/06/24 04:00:07;;;;;;;8.58;5.67;;;;;;;16.45;66.42;98466.25;1672850;85;25734;-59
2022/06/24 04:02:34;;;;;;;6.95;5.97;;;;;;;16.54;66.41;98464.67;1673113;85;25617;-60
2022/06/24 04:05:00;;;;;;;12.63;6.17;;;;;;;16.66;66.19;98472.88;1672918;85;27636;-60
2022/06/24 04:07:26;;;;;;;11.35;5.78;;;;;;;16.80;66.09;98468.83;1685318;85;25650;-59
2022/06/24 04:09:53;;;;;;;7.37;5.40;;;;;;;16.90;65.55;98473.80;1685199;85;25697;-59
2022/06/24 04:12:18;;;;;;;11.03;5.87;;;;;;;17.01;65.31;98476.02;1685145;85;26144;-59
2022/06/24 04:17:29;;;;;;;8.58;6.00;;;;;;;17.22;65.13;98472.94;1684886;85;25643;-59
2022/06/24 04:19:55;;;;;;;9.18;6.53;;;;;;;17.27;64.37;98474.63;1684915;85;25646;-59
2022/06/24 04:22:21;;;;;;;9.18;5.55;;;;;;;17.34;64.44;98478.10;1685464;85;25565;-59
2022/06/24 04:24:48;;;;;;;8.05;5.62;;;;;;;17.52;64.22;98480.66;1685054;85;26492;-59
2022/06/24 04:27:14;;;;;;;8.58;5.75;;;;;;;17.64;63.52;98480.27;1685334;85;25648;-59
2022/06/24 04:29:40;;;;;;;9.00;5.65;;;;;;;17.79;63.18;98479.98;1685409;85;27536;-59
2022/06/24 04:32:07;;;;;;;8.63;5.60;;;;;;;17.87;63.06;98483.67;1685195;85;25488;-59
2022/06/24 04:34:37;;;;;;;11.05;5.72;;;;;;;17.96;62.94;98477.91;1685234;85;25617;-60
2022/06/24 04:37:06;;;;;;;7.60;5.60;;;;;;;18.06;62.82;98482.84;1685332;85;25737;-60
2022/06/24 04:39:36;;;;;;;10.23;5.42;;;;;;;18.20;62.60;98481.52;1684346;85;25440;-60
2022/06/24 04:42:03;;;;;;;10.95;6.30;;;;;;;18.33;61.93;98489.08;1682324;85;28515;-59
2022/06/24 04:44:29;;;;;;;9.75;4.90;;;;;;;18.45;61.35;98488.86;1684796;85;25588;-59
2022/06/24 04:46:55;;;;;;;7.17;5.47;;;;;;;18.54;61.13;98486.63;1685120;85;25633;-59
2022/06/24 04:49:21;;;;;;;7.85;4.75;;;;;;;18.66;61.00;98486.23;1684844;85;25733;-59
2022/06/24 04:51:48;;;;;;;6.20;4.87;;;;;;;18.78;60.70;98487.41;1685168;85;25665;-59
2022/06/24 04:54:14;;;;;;;10.18;4.67;;;;;;;18.84;60.66;98487.88;1684536;85;27453;-60
2022/06/24 04:56:40;;;;;;;7.53;4.80;;;;;;;18.92;59.89;98482.66;1684293;85;25678;-60
2022/06/24 04:59:06;;;;;;;6.25;5.17;;;;;;;18.99;60.28;98482.52;1684480;84;25689;-59
2022/06/24 05:01:32;;;;;;;9.38;5.60;;;;;;;19.05;59.49;98481.83;1684445;85;26465;-59
2022/06/24 05:04:03;;;;;;;8.50;4.67;;;;;;;19.00;59.83;98484.92;1684702;85;25667;-60
2022/06/24 05:06:29;;;;;;;6.47;4.40;;;;;;;19.10;59.33;98486.30;1684254;85;27491;-59
2022/06/24 05:08:56;;;;;;;6.03;4.37;;;;;;;19.14;59.14;98481.58;1684339;85;25696;-60
2022/06/24 05:11:23;;;;;;;6.30;4.60;;;;;;;19.18;59.43;98481.64;1684490;85;25523;-59
2022/06/24 05:13:49;;;;;;;7.60;4.87;;;;;;;19.28;58.96;98486.53;1684216;84;25618;-59
2022/06/24 05:16:15;;;;;;;6.97;4.67;;;;;;;19.37;58.93;98491.79;1684509;84;25510;-60
2022/06/24 05:18:41;;;;;;;7.00;4.37;;;;;;;19.50;58.99;98491.55;1684425;84;26926;-60
2022/06/24 05:21:07;;;;;;;5.58;4.08;;;;;;;19.57;58.25;98497.19;1684441;84;25502;-59
2022/06/24 05:23:33;;;;;;;6.47;4.58;;;;;;;19.67;57.84;98495.73;1684511;84;25499;-60
2022/06/24 05:26:00;;;;;;;8.85;4.35;;;;;;;19.79;58.14;98491.30;1684351;85;25797;-59
2022/06/24 05:28:26;;;;;;;8.10;4.65;;;;;;;19.96;57.10;98492.45;1684319;84;25708;-59
2022/06/24 05:30:58;;;;;;;6.22;4.00;;;;;;;19.86;56.95;98496.12;1684430;85;27659;-60
2022/06/24 05:33:24;;;;;;;6.40;4.28;;;;;;;19.86;56.58;98493.95;1683360;85;25815;-59
2022/06/24 05:35:54;;;;;;;5.25;4.03;;;;;;;19.92;56.95;98488.26;1684477;85;25598;-59
2022/06/24 05:38:23;;;;;;;5.83;3.70;;;;;;;20.05;56.80;98493.78;1681307;85;26899;-59
2022/06/24 05:40:51;;;;;;;6.85;4.25;;;;;;;20.20;57.03;98493.91;1683850;85;25498;-59
2022/06/24 05:43:24;;;;;;;5.65;4.25;;;;;;;20.39;57.13;98492.09;1684481;85;27387;-60
2022/06/24 05:46:07;;;;;;;11.48;4.20;;;;;;;20.62;56.35;98489.67;1684026;85;25622;-60
2022/06/24 05:48:33;;;;;;;6.30;3.62;;;;;;;20.75;55.45;98488.18;1684051;85;25636;-59
2022/06/24 05:51:00;;;;;;;8.18;4.40;;;;;;;20.96;56.25;98492.92;1684541;84;25659;-59
2022/06/24 05:56:11;;;;;;;4.55;3.67;;;;;;;21.09;54.09;98494.77;1684315;85;25791;-60
2022/06/24 05:58:38;;;;;;;7.22;4.00;;;;;;;21.00;54.45;98492.34;1684232;85;25475;-59
2022/06/24 06:01:11;;;;;;;5.72;3.62;;;;;;;20.94;54.42;98490.52;1684210;84;25693;-59
2022/06/24 06:03:39;;;;;;;4.97;3.58;;;;;;;21.10;54.06;98495.78;1684004;85;26562;-59
2022/06/24 06:06:07;;;;;;;5.87;3.45;;;;;;;21.33;53.98;98492.52;1684387;85;25656;-60
2022/06/24 06:08:35;;;;;;;4.03;3.35;;;;;;;21.56;53.02;98492.23;1684230;85;27337;-59
2022/06/24 06:11:02;;;;;;;3.67;2.98;;;;;;;21.74;52.40;98490.08;1684505;84;25687;-59
2022/06/24 06:13:28;;;;;;;5.53;3.62;;;;;;;21.82;51.41;98484.77;1659014;85;25625;-59
2022/06/24 06:15:55;;;;;;;4.40;3.25;;;;;;;21.91;52.83;98485.16;1684369;85;25811;-59
2022/06/24 06:18:21;;;;;;;5.33;3.80;;;;;;;22.04;51.80;98487.58;1684628;85;25593;-59
2022/06/24 06:20:47;;;;;;;5.05;3.10;;;;;;;22.12;51.35;98478.63;1684561;84;27847;-60
2022/06/24 06:23:14;;;;;;;7.37;3.60;;;;;;;22.24;51.55;98483.02;1684331;85;25608;-60
2022/06/24 06:25:41;;;;;;;2.85;2.58;;;;;;;22.47;50.67;98484.61;1684446;85;26130;-60
2022/06/24 06:28:07;;;;;;;5.62;3.80;;;;;;;22.57;49.53;98483.84;1684609;85;25720;-59
2022/06/24 06:30:34;;;;;;;6.03;3.20;;;;;;;22.74;50.74;98486.42;1684630;84;25742;-59
2022/06/24 06:33:01;;;;;;;4.90;3.50;;;;;;;22.96;50.67;98486.39;1684167;84;27421;-60
2022/06/24 06:35:27;;;;;;;3.85;2.98;;;;;;;22.89;49.00;98487.81;1684303;85;25597;-60
2022/06/24 06:37:54;;;;;;;3.87;2.95;;;;;;;22.73;49.42;98483.44;1684333;85;25423;-60
2022/06/24 06:40:20;;;;;;;5.62;3.15;;;;;;;22.79;50.00;98486.62;1680909;85;25869;-60
2022/06/24 06:42:47;;;;;;;4.72;2.98;;;;;;;22.91;48.98;98486.20;1684218;85;25621;-60
2022/06/24 06:45:14;;;;;;;7.03;3.30;;;;;;;22.96;49.03;98486.98;1683958;85;27788;-59
2022/06/24 06:47:41;;;;;;;9.00;3.30;;;;;;;22.96;49.48;98480.80;1684076;85;25431;-58
2022/06/24 06:50:09;;;;;;;4.08;3.00;;;;;;;23.14;48.63;98474.39;1684305;85;25666;-59
2022/06/24 06:52:35;;;;;;;4.95;2.80;;;;;;;23.44;49.00;98482.88;1684448;85;25702;-59
2022/06/24 06:55:03;;;;;;;4.17;2.90;;;;;;;23.68;47.93;98483.16;1685624;85;25672;-59
2022/06/24 06:57:29;;;;;;;3.60;2.90;;;;;;;23.80;47.51;98478.50;1686902;84;27367;-60
2022/06/24 06:59:56;;;;;;;6.10;3.02;;;;;;;23.90;47.17;98481.05;1686871;84;25638;-59
2022/06/24 07:02:22;;;;;;;3.20;2.45;;;;;;;23.89;45.86;98478.67;1687151;85;25657;-59
2022/06/24 07:04:49;;;;;;;4.15;3.00;;;;;;;23.94;46.24;98469.23;1686891;85;25787;-59
2022/06/24 07:07:16;;;;;;;4.22;2.80;;;;;;;24.15;45.55;98473.11;1686852;85;25514;-59
2022/06/24 07:09:43;;;;;;;6.17;2.85;;;;;;;24.35;45.22;98472.55;1687116;85;27479;-59
2022/06/24 07:12:10;;;;;;;4.47;2.80;;;;;;;24.30;45.89;98470.98;1687049;85;25596;-59
2022/06/24 07:14:41;;;;;;;4.30;3.00;;;;;;;24.44;44.86;98473.50;1687207;85;25630;-59
2022/06/24 07:17:09;;;;;;;3.70;2.58;;;;;;;24.50;45.62;98464.84;1687169;85;25500;-59
2022/06/24 07:19:36;;;;;;;4.55;2.62;;;;;;;24.66;44.31;98460.09;1686896;85;25761;-60
2022/06/24 07:22:04;;;;;;;4.25;2.80;;;;;;;24.68;44.20;98468.87;1687100;85;27446;-59
2022/06/24 07:24:31;;;;;;;4.03;2.80;;;;;;;24.75;43.62;98457.41;1687063;85;25752;-59
2022/06/24 07:26:57;;;;;;;3.60;2.77;;;;;;;24.79;44.33;98463.17;1686945;85;25604;-60
2022/06/24 07:29:24;;;;;;;2.30;2.10;;;;;;;24.95;43.90;98459.02;1686954;85;25858;-60
2022/06/24 07:31:51;;;;;;;2.87;2.40;;;;;;;25.15;41.74;98454.99;1686936;85;25604;-59
2022/06/24 07:34:18;;;;;;;3.67;2.37;;;;;;;25.28;42.22;98455.85;1686534;85;29522;-59
2022/06/24 07:36:45;;;;;;;2.62;2.42;;;;;;;25.43;42.21;98456.46;1683130;85;25756;-60
2022/06/24 07:39:11;;;;;;;2.60;2.40;;;;;;;25.54;41.52;98459.13;1687072;85;25433;-60
2022/06/24 07:41:38;;;;;;;3.40;2.30;;;;;;;25.58;41.44;98450.67;1686920;85;25930;-60
2022/06/24 07:44:05;;;;;;;2.42;2.22;;;;;;;25.83;40.53;98443.92;1686904;85;25425;-59
2022/06/24 07:46:31;;;;;;;3.58;2.55;;;;;;;25.94;39.98;98445.98;1686872;85;27256;-59
2022/06/24 07:48:58;;;;;;;8.63;2.20;;;;;;;26.18;39.79;98442.59;1687180;85;25727;-60
2022/06/24 07:51:25;;;;;;;3.52;2.70;;;;;;;26.38;38.87;98445.30;1687124;85;25515;-60
2022/06/24 07:53:52;;;;;;;4.67;2.30;;;;;;;26.42;38.20;98441.21;1687071;85;25845;-60
2022/06/24 07:59:04;;;;;;;3.85;2.30;;;;;;;26.61;38.93;98436.08;1686855;85;25666;-60
2022/06/24 08:01:31;;;;;;;2.85;2.10;;;;;;;27.04;36.94;98432.29;1687153;85;25917;-60
2022/06/24 08:03:58;;;;;;;3.45;2.20;;;;;;;27.15;36.49;98436.30;1687110;85;25737;-60
2022/06/24 08:06:25;;;;;;;3.72;2.25;;;;;;;27.06;35.90;98427.81;1687098;85;25856;-60
2022/06/24 08:08:52;;;;;;;2.80;2.33;;;;;;;27.05;35.54;98427.64;1686758;85;25830;-60
2022/06/24 08:11:19;;;;;;;2.33;2.12;;;;;;;27.15;36.58;98425.05;1687023;85;29599;-59
2022/06/24 08:13:45;;;;;;;2.65;2.30;;;;;;;27.27;36.93;98432.83;1687033;85;25644;-60
2022/06/24 08:16:12;;;;;;;2.75;2.40;;;;;;;27.33;35.88;98433.71;1687188;85;25649;-59
2022/06/24 08:18:39;;;;;;;3.85;2.45;;;;;;;27.31;35.96;98431.33;1687075;85;25747;-60
2022/06/24 08:21:06;;;;;;;4.03;2.40;;;;;;;27.58;37.27;98429.57;1687030;85;25483;-60
2022/06/24 08:23:33;;;;;;;3.75;2.12;;;;;;;27.85;36.20;98425.77;1686796;84;27490;-60
2022/06/24 08:25:59;;;;;;;3.02;2.27;;;;;;;28.11;36.17;98416.90;1686936;85;25503;-60
2022/06/24 08:28:26;;;;;;;2.40;2.00;;;;;;;28.41;35.01;98427.64;1672350;84;26508;-59
2022/06/24 08:30:52;;;;;;;3.55;2.40;;;;;;;28.43;35.03;98420.16;1684766;84;25850;-59
2022/06/24 08:33:19;;;;;;;6.10;2.40;;;;;;;28.46;36.19;98419.27;1688261;84;25765;-60
2022/06/24 08:35:47;;;;;;;3.20;2.15;;;;;;;28.61;34.36;98421.73;1688810;84;27450;-59
2022/06/24 08:38:15;;;;;;;3.37;2.25;;;;;;;28.65;34.57;98420.39;1688654;84;25697;-59
2022/06/24 08:40:47;;;;;;;2.60;2.05;;;;;;;28.78;34.69;98421.07;1666996;84;25686;-59
2022/06/24 08:43:15;;;;;;;2.83;2.40;;;;;;;29.20;33.68;98406.21;1689029;84;25772;-60
2022/06/24 08:45:42;;;;;;;3.42;2.20;;;;;;;29.59;34.45;98408.33;1689001;84;25671;-60
2022/06/24 08:48:10;;;;;;;5.15;2.40;;;;;;;29.73;33.65;98406.45;1689484;84;27424;-60
2022/06/24 08:50:37;;;;;;;2.25;1.98;;;;;;;29.64;32.91;98404.92;1689469;84;25714;-59
2022/06/24 08:53:09;;;;;;;4.30;2.10;;;;;;;29.67;32.13;98401.20;1688664;84;25614;-60
2022/06/24 08:55:38;;;;;;;2.62;1.92;;;;;;;29.60;32.75;98400.02;1653775;85;25748;-60
2022/06/24 08:58:10;;;;;;;2.70;1.90;;;;;;;29.50;32.09;98404.09;1627088;88;25759;-59
2022/06/24 09:00:38;;;;;;;3.60;2.20;;;;;;;29.42;33.27;98398.52;1643702;87;27451;-60
2022/06/24 09:03:06;;;;;;;3.05;2.12;;;;;;;29.60;33.64;98400.81;1627732;88;25485;-60
2022/06/24 09:05:33;;;;;;;5.40;2.20;;;;;;;29.82;33.04;98394.50;1644119;87;25652;-60
2022/06/24 09:08:10;;;;;;;3.37;2.25;;;;;;;29.78;32.63;98399.45;1627715;88;25853;-60
2022/06/24 09:10:39;;;;;;;3.47;2.00;;;;;;;29.87;32.01;98395.94;1643723;87;25671;-60
2022/06/24 09:13:08;;;;;;;2.60;1.80;;;;;;;30.38;31.15;98402.77;1627920;88;27458;-59
2022/06/24 09:15:35;;;;;;;3.45;1.90;;;;;;;30.73;30.43;98399.14;1671544;84;25647;-59
2022/06/24 09:18:01;;;;;;;2.27;1.90;;;;;;;30.98;29.96;98392.61;1671522;85;25458;-60
2022/06/24 09:20:32;;;;;;;4.83;2.05;;;;;;;30.95;29.69;98400.60;1689486;84;25795;-60
2022/06/24 09:23:07;;;;;;;4.08;1.95;;;;;;;30.59;30.26;98391.98;1666308;85;40804;-60
2022/06/24 09:26:02;;;;;;;3.40;1.95;;;;;;;30.81;31.46;98392.02;1681649;85;27452;-60
2022/06/24 09:28:31;;;;;;;2.47;1.98;;;;;;;31.45;29.82;98399.97;1672474;85;26077;-59
2022/06/24 09:31:06;;;;;;;2.20;2.00;;;;;;;31.09;30.27;98394.24;1687761;85;25492;-59
2022/06/24 09:33:49;;;;;;;4.90;2.10;;;;;;;30.88;30.88;98391.74;1673097;85;25793;-60
2022/06/24 09:36:16;;;;;;;2.85;1.90;;;;;;;31.16;30.27;98399.01;1687202;85;25445;-59
2022/06/24 09:39:02;;;;;;;5.50;1.70;;;;;;;31.62;30.20;98401.94;1672819;85;27451;-59
2022/06/24 09:41:30;;;;;;;3.35;2.00;;;;;;;31.98;29.30;98390.45;1687258;85;25835;-59
2022/06/24 09:44:01;;;;;;;2.40;1.60;;;;;;;32.53;28.68;98394.00;1672898;85;25598;-59
2022/06/24 09:46:28;;;;;;;1.92;1.65;;;;;;;32.44;26.43;98398.25;1687135;85;25813;-59
2022/06/24 09:49:04;;;;;;;2.20;2.00;;;;;;;32.08;27.72;98396.29;1673058;85;25535;-60
2022/06/24 09:51:32;;;;;;;2.02;1.82;;;;;;;32.11;27.51;98398.80;1687333;85;27377;-59
2022/06/24 09:54:00;;;;;;;1.85;1.75;;;;;;;32.17;27.28;98396.31;1673056;85;25986;-59
2022/06/24 09:56:28;;;;;;;1.98;1.67;;;;;;;32.05;27.47;98392.36;1687203;85;25665;-60
2022/06/24 10:01:43;;;;;;;3.02;1.90;;;;;;;32.91;26.78;98386.90;1687075;85;25700;-60
2022/06/24 10:04:17;;;;;;;2.60;2.02;;;;;;;33.09;26.18;98390.36;1672770;85;27366;-59
2022/06/24 10:06:47;;;;;;;4.03;1.80;;;;;;;32.60;27.37;98385.02;1687006;85;25705;-59
2022/06/24 10:09:16;;;;;;;2.47;1.95;;;;;;;32.53;27.05;98385.48;1673143;85;25769;-59
2022/06/24 10:11:44;;;;;;;2.00;1.80;;;;;;;32.24;27.10;98381.06;1687359;85;25832;-59
2022/06/24 10:14:12;;;;;;;3.03;1.90;;;;;;;32.55;27.20;98380.77;1673440;85;25497;-59
2022/06/24 10:16:42;;;;;;;2.50;1.98;;;;;;;32.87;26.45;98371.45;1687172;85;27602;-59
2022/06/24 10:19:12;;;;;;;2.52;1.60;;;;;;;32.85;27.27;98373.98;1673170;85;25851;-59
2022/06/24 10:21:40;;;;;;;2.40;1.80;;;;;;;33.47;26.13;98366.90;1687305;85;25709;-59
2022/06/24 10:24:16;;;;;;;2.08;1.62;;;;;;;33.66;27.04;98365.44;1671134;85;26359;-59
2022/06/24 10:26:48;;;;;;;2.83;1.90;;;;;;;33.73;25.73;98362.88;1686354;85;25662;-59
2022/06/24 10:29:21;;;;;;;4.03;1.70;;;;;;;33.77;25.68;98361.44;1673154;85;27394;-59
2022/06/24 10:31:56;;;;;;;2.40;1.50;;;;;;;33.55;24.88;98364.50;1687242;85;26099;-59
2022/06/24 10:34:32;;;;;;;2.00;1.80;;;;;;;33.79;24.16;98352.44;1673120;85;25582;-59
2022/06/24 10:37:06;;;;;;;2.00;1.30;;;;;;;34.05;24.43;98352.73;1686461;85;26118;-59
2022/06/24 10:39:47;;;;;;;1.70;1.60;;;;;;;34.10;23.33;98357.62;1673067;85;25630;-61
2022/06/24 10:42:15;;;;;;;1.95;1.72;;;;;;;33.87;23.75;98346.53;1687175;85;27568;-60
2022/06/24 10:45:03;;;;;;;1.82;1.45;;;;;;;33.99;23.69;98342.52;1672616;85;25639;-60
2022/06/24 10:47:37;;;;;;;2.12;1.75;;;;;;;34.25;24.94;98339.98;1687229;85;25603;-60
2022/06/24 10:50:07;;;;;;;2.30;1.92;;;;;;;34.26;24.28;98338.73;1672771;85;26624;-59
2022/06/24 10:52:48;;;;;;;1.90;1.50;;;;;;;34.19;24.94;98326.28;1687001;85;25663;-58
2022/06/24 10:55:29;;;;;;;2.65;1.80;;;;;;;34.56;24.31;98332.30;1671999;85;27498;-59
2022/06/24 10:58:09;;;;;;;3.25;1.77;;;;;;;35.07;24.12;98328.81;1687024;85;26253;-58
2022/06/24 11:00:48;;;;;;;5.62;1.70;;;;;;;35.37;24.20;98325.98;1673318;85;25477;-59
2022/06/24 11:03:27;;;;;;;2.50;1.70;;;;;;;35.40;24.07;98321.48;1687501;85;25733;-59
2022/06/24 11:05:54;;;;;;;1.75;1.65;;;;;;;35.45;23.30;98325.70;1673564;85;25468;-59
2022/06/24 11:08:24;;;;;;;3.62;1.60;;;;;;;35.54;23.99;98319.88;1687175;85;29635;-58
2022/06/24 11:10:52;;;;;;;2.20;1.70;;;;;;;35.95;22.86;98319.83;1672815;85;25709;-59
2022/06/24 11:13:23;;;;;;;1.80;1.70;;;;;;;35.64;22.58;98319.13;1687385;85;25693;-58
2022/06/24 11:15:58;;;;;;;2.77;1.67;;;;;;;35.64;22.58;98319.13;1672886;85;25895;-58
2022/06/24 11:18:35;;;;;;;3.25;1.92;;;;;;;35.80;23.51;98315.59;1687198;85;25730;-59
2022/06/24 11:21:05;;;;;;;2.75;1.80;;;;;;;35.67;23.14;98308.80;1669499;85;27461;-59
2022/06/24 11:23:35;;;;;;;5.17;1.98;;;;;;;35.81;22.68;98305.78;1687300;85;25705;-59
2022/06/24 11:26:15;;;;;;;2.47;1.90;;;;;;;35.53;22.92;98296.95;1673196;85;25543;-59
2022/06/24 11:28:52;;;;;;;2.30;1.62;;;;;;;35.71;22.90;98294.37;1686437;85;25758;-59
2022/06/24 11:31:33;;;;;;;2.10;1.85;;;;;;;36.00;22.50;98296.28;1673062;85;25444;-60
2022/06/24 11:34:10;;;;;;;1.55;1.45;;;;;;;36.57;22.30;98291.09;1687168;85;25815;-59
2022/06/24 11:36:38;;;;;;;2.95;1.70;;;;;;;36.62;21.29;98298.30;1674757;84;25614;-59
2022/06/24 11:39:09;;;;;;;3.62;1.60;;;;;;;36.44;21.82;98285.78;1686602;85;25742;-59
2022/06/24 11:41:42;;;;;;;3.75;1.95;;;;;;;35.60;22.09;98288.61;1673061;85;25764;-59
2022/06/24 11:44:09;;;;;;;1.60;1.50;;;;;;;35.24;22.35;98286.41;1686828;85;25682;-59
2022/06/24 11:46:36;;;;;;;4.08;1.90;;;;;;;35.41;22.38;98285.25;1673018;85;27598;-59
2022/06/24 11:49:07;;;;;;;3.95;1.90;;;;;;;35.50;22.94;98280.05;1687142;85;25586;-59
2022/06/24 11:51:34;;;;;;;2.92;1.70;;;;;;;35.74;24.84;98284.17;1685034;83;25430;-59
2022/06/24 11:54:04;;;;;;;3.02;1.80;;;;;;;35.88;22.28;98278.27;1672733;85;25855;-59
2022/06/24 11:56:37;;;;;;;2.02;1.60;;;;;;;35.54;22.23;98276.34;1687278;85;25509;-59